Latest Weather Observations for Cowra

IDN60801

Issued at 10:02 pm EDT Friday 9 December 2016 (issued every 30 minutes, with the page automatically refreshed every 10 minutes)

About weather observations | Map of weather stations | Latest weather observations for NSW | Other Formats
Station Details ID: 065111 Name: COWRA AIRPORT AWS Lat: -33.84 Lon: 148.65 Height: 300.4 m
Data from the previous 72 hours. | See also: Recent months at Cowra
Date/Time
EDT
Temp
°C
App
Temp
°C
Dew
Point
°C
Rel
Hum
%
Delta-T
°C
Wind Press
QNH
hPa
Press
MSL
hPa
Rain since
9am
mm
Dir  Spd
km/h
Gust
km/h
Spd
kts
Gust
kts
09/10:00pm 14.0 12.5 2.9 47 5.0 CALM 0 6 0 3 1018.5 1017.2 -
09/09:30pm 13.9 10.3 2.8 47 5.0 SW 11 13 6 7 1018.1 1016.8 -
09/09:00pm 14.9 11.2 2.4 43 5.6 SW 11 13 6 7 1017.8 1016.5 0.0
09/08:30pm 15.3 11.2 2.1 41 5.9 WSW 13 15 7 8 1017.3 1015.9 -
09/08:00pm 17.9 13.6 1.0 32 7.6 SW 13 19 7 10 1016.8 1015.5 -
09/07:30pm 20.3 14.8 0.7 27 8.9 WSW 19 24 10 13 1016.4 1015.1 -
09/07:00pm 21.1 14.7 0.9 26 9.3 WSW 24 32 13 17 1015.8 1014.5 -
09/06:30pm 21.7 14.8 0.3 24 9.8 WSW 26 35 14 19 1015.2 1013.9 -
09/06:00pm 21.9 15.4 0.4 24 9.9 WSW 24 39 13 21 1014.7 1013.4 -
09/05:30pm 22.6 15.8 1.0 24 10.1 SW 26 39 14 21 1014.7 1013.4 -
09/05:00pm 22.4 15.4 -0.3 22 10.3 WSW 26 43 14 23 1014.6 1013.3 -
09/04:30pm 22.1 14.7 -0.6 22 10.2 WSW 28 41 15 22 1014.4 1013.0 -
09/04:02pm 23.1 15.4 -0.4 21 10.7 SW 30 48 16 26 1014.4 1013.0 -
09/04:00pm 22.7 14.5 -0.7 21 10.6 WSW 32 48 17 26 1014.5 1013.1 -
09/03:53pm 22.3 14.6 -0.4 22 10.3 WSW 30 48 16 26 1014.4 1013.0 -
09/03:30pm 22.3 15.9 0.8 24 10.0 WSW 24 35 13 19 1014.5 1013.1 -
09/03:01pm 21.4 14.4 1.7 27 9.2 WSW 28 46 15 25 1014.6 1013.3 -
09/03:00pm 21.2 13.7 1.0 26 9.3 WSW 30 46 16 25 1014.6 1013.3 -
09/02:30pm 21.2 14.4 1.0 26 9.3 W 26 39 14 21 1014.5 1013.1 -
09/02:00pm 21.1 13.6 3.3 31 8.6 W 32 48 17 26 1014.7 1013.4 0.2
09/01:58pm 20.6 13.3 2.4 30 8.6 W 30 48 16 26 1014.8 1013.5 0.2
09/01:57pm 20.8 13.5 2.6 30 8.7 W 30 48 16 26 1014.8 - 0.2
09/01:30pm 19.7 14.2 2.1 31 8.2 WSW 20 35 11 19 1015.1 - 0.2
09/01:00pm 19.3 14.3 4.6 38 7.2 W 20 33 11 18 1015.1 - 0.2
09/12:30pm 17.7 11.2 2.5 36 7.0 WSW 26 39 14 21 1015.3 - 0.2
09/12:00pm 18.4 11.7 3.8 38 7.0 WSW 28 39 15 21 1015.1 - 0.2
09/11:30am 18.1 11.2 4.7 41 6.5 WSW 30 39 16 21 1015.0 - 0.2
09/11:00am 16.6 10.6 5.3 47 5.5 WSW 26 35 14 19 1014.8 - 0.2
09/10:30am 16.4 10.0 6.8 53 4.8 SW 30 41 16 22 1014.6 - 0.2
09/10:00am 14.9 10.3 8.2 64 3.4 WSW 22 30 12 16 1014.6 - 0.0
09/09:30am 14.2 9.1 7.7 65 3.3 WSW 24 33 13 18 1014.4 - 0.0
09/09:00am 13.3 7.8 7.7 69 2.8 WSW 26 35 14 19 1014.0 - 2.4
09/08:30am 12.4 6.5 7.5 72 2.4 WSW 28 35 15 19 1013.5 - 2.4
09/08:00am 12.7 7.0 8.2 74 2.3 WSW 28 39 15 21 1012.8 - 2.4
09/07:30am 12.3 7.5 9.0 80 1.7 SW 24 35 13 19 1012.2 - 2.4
09/07:00am 11.6 6.7 8.3 80 1.6 SW 24 30 13 16 1012.0 - 2.4
09/06:30am 11.0 6.9 7.7 80 1.6 WSW 19 28 10 15 1011.2 - 2.4
09/06:00am 11.0 7.2 7.5 79 1.7 WSW 17 24 9 13 1010.8 - 2.4
09/05:30am 11.3 6.9 7.4 77 1.9 WSW 20 32 11 17 1010.2 - 2.4
09/05:00am 11.2 7.3 7.3 77 1.9 WSW 17 20 9 11 1009.6 - 2.4
09/04:30am 11.4 7.6 7.5 77 1.9 WSW 17 22 9 12 1009.2 - 2.4
09/04:00am 12.0 7.9 7.9 76 2.0 WSW 19 22 10 12 1008.8 - 2.4
09/03:30am 12.4 7.4 8.1 75 2.2 WSW 24 33 13 18 1008.5 - 2.4
09/03:00am 12.2 8.3 8.7 79 1.8 WSW 19 24 10 13 1008.3 - 2.4
09/02:30am 12.6 10.8 10.8 89 1.0 WNW 11 15 6 8 1008.1 - 2.4
09/02:00am 12.6 10.6 11.5 93 0.6 NW 13 17 7 9 1007.9 - 2.4
09/01:30am 12.3 11.1 11.7 96 0.3 NNW 9 11 5 6 1007.9 - 2.4
09/01:00am 13.0 12.1 12.5 97 0.3 NNW 9 13 5 7 1007.7 - 2.4
09/12:30am 12.8 12.2 12.2 96 0.3 N 7 9 4 5 1007.7 - 2.4
09/12:00am 13.4 12.9 12.5 94 0.5 NNW 7 9 4 5 1007.6 - 2.4
 
Date/Time
EDT
Temp
°C
App
Temp
°C
Dew
Point
°C
Rel
Hum
%
Delta-T
°C
Wind Press
QNH
hPa
Press
MSL
hPa
Rain since
9am
mm
Dir  Spd
km/h
Gust
km/h
Spd
kts
Gust
kts
08/11:30pm 13.8 13.3 12.7 93 0.6 NNW 7 11 4 6 1007.6 - 2.4
08/11:00pm 14.4 13.9 12.8 90 0.9 NNW 7 9 4 5 1007.7 - 2.4
08/10:30pm 15.0 14.4 12.3 84 1.5 N 7 7 4 4 1007.3 - 2.4
08/10:00pm 15.0 15.6 11.8 81 1.8 CALM 0 0 0 0 1007.1 - 2.4
08/09:30pm 14.9 13.8 11.9 82 1.6 ESE 9 17 5 9 1006.8 - 2.4
08/09:00pm 15.1 13.8 12.6 85 1.4 SW 11 17 6 9 1006.2 - 1.8
08/08:30pm 15.4 12.9 13.6 89 1.0 SSW 19 26 10 14 1005.9 - 1.8
08/08:01pm 15.9 10.6 13.2 84 1.5 SW 33 52 18 28 1005.1 - 1.0
08/08:00pm 16.0 10.3 13.1 83 1.6 SW 35 52 19 28 1005.2 - 0.8
08/07:56pm 16.5 11.4 13.6 83 1.7 WSW 33 52 18 28 1005.2 - 0.8
08/07:44pm 17.8 14.1 15.1 84 1.6 WSW 28 44 15 24 1004.8 - 0.8
08/07:30pm 19.1 18.2 16.9 87 1.3 WSW 17 24 9 13 1003.4 - 0.6
08/07:00pm 20.3 18.9 16.5 79 2.3 SW 19 26 10 14 1003.4 - 0.0
08/06:30pm 23.6 18.1 14.6 57 5.4 WSW 37 46 20 25 1001.9 - 0.0
08/06:17pm 24.5 18.6 14.6 54 6.0 SW 39 57 21 31 1001.4 - 0.0
08/06:00pm 24.8 17.8 14.3 52 6.3 WSW 44 61 24 33 1001.0 - 0.0
08/05:30pm 27.0 17.2 12.6 41 8.5 SW 56 76 30 41 1000.1 - 0.0
08/05:29pm 27.1 17.2 12.3 39 8.7 SW 56 76 30 41 1000.2 - 0.0
08/05:19pm 28.7 18.1 10.8 33 10.3 WSW 57 69 31 37 999.7 - 0.0
08/05:17pm 30.3 23.4 10.3 29 11.5 WSW 37 61 20 33 999.5 - 0.0
08/05:00pm 31.2 25.7 10.5 28 12.0 W 30 43 16 23 998.8 - 0.0
08/04:30pm 31.7 26.5 10.4 27 12.4 W 28 35 15 19 998.6 - 0.0
08/04:01pm 32.4 27.2 10.4 26 12.8 NW 28 46 15 25 998.9 - 0.0
08/04:00pm 32.5 27.0 10.5 26 12.8 NW 30 46 16 25 999.0 - 0.0
08/03:33pm 32.9 27.7 10.3 25 13.2 NW 28 46 15 25 999.4 - 0.0
08/03:30pm 33.0 28.4 10.9 26 13.0 NW 26 46 14 25 999.5 - 0.0
08/03:00pm 33.5 29.0 11.4 26 13.2 NW 26 39 14 21 1000.5 999.1 0.0
08/02:30pm 33.5 28.5 10.8 25 13.4 NW 28 50 15 27 1001.3 - 0.0
08/02:29pm 33.2 27.7 10.5 25 13.3 NW 30 50 16 27 1001.3 - 0.0
08/02:00pm 33.1 28.7 10.4 25 13.3 NW 24 39 13 21 1001.9 - 0.0
08/01:51pm 32.9 27.9 10.9 26 12.9 NW 28 46 15 25 1001.9 - 0.0
08/01:30pm 32.1 26.5 10.2 26 12.7 NNW 30 44 16 24 1002.4 - 0.0
08/01:12pm 32.2 26.8 10.8 27 12.5 NW 30 48 16 26 1002.8 - 0.0
08/01:00pm 31.8 26.7 10.5 27 12.4 NW 28 44 15 24 1003.0 - 0.0
08/12:48pm 30.4 24.9 10.4 29 11.5 NW 30 48 16 26 1003.3 - 0.0
08/12:30pm 31.7 26.1 11.5 29 11.9 NNW 32 44 17 24 1003.7 - 0.0
08/12:00pm 31.2 27.0 12.5 31 11.2 NW 26 44 14 24 1004.3 - 0.0
08/11:30am 30.6 26.1 12.5 33 10.8 NW 28 43 15 23 1004.8 - 0.0
08/11:00am 29.9 27.0 14.0 37 9.7 NNW 22 41 12 22 1005.1 - 0.0
08/10:30am 29.2 27.3 15.3 42 8.6 N 19 30 10 16 1005.6 - 0.0
08/10:00am 27.8 25.8 15.5 47 7.6 NNW 20 30 11 16 1006.2 - 0.0
08/09:30am 25.3 24.9 15.3 54 6.1 N 11 20 6 11 1006.8 - 0.0
08/09:00am 23.0 23.2 13.2 54 5.7 NNW 4 9 2 5 1007.3 1005.9 0.0
08/08:30am 21.3 21.0 11.6 54 5.5 SW 4 9 2 5 1007.9 - 0.0
08/08:00am 19.4 18.8 11.7 61 4.3 SE 6 7 3 4 1008.3 - 0.0
08/07:30am 16.9 16.7 10.3 65 3.6 ESE 2 7 1 4 1008.9 - 0.0
08/07:00am 14.9 13.8 10.1 73 2.5 ESE 6 9 3 5 1009.1 - 0.0
08/06:30am 11.5 11.3 9.2 86 1.2 CALM 0 0 0 0 1009.2 - 0.0
08/06:00am 10.2 9.7 8.0 86 1.1 CALM 0 0 0 0 1008.9 - 0.0
08/05:30am 10.9 10.5 8.1 83 1.4 CALM 0 0 0 0 1008.8 - 0.0
08/05:00am 11.3 11.0 8.5 83 1.4 CALM 0 6 0 3 1009.1 - 0.0
08/04:30am 10.7 10.3 8.1 84 1.3 CALM 0 0 0 0 1009.0 - 0.0
08/04:00am 10.3 9.3 7.2 81 1.5 E 2 7 1 4 1009.1 - 0.0
08/03:30am 12.1 10.6 8.4 78 1.9 SSE 6 7 3 4 1009.4 - 0.0
08/03:00am 13.0 11.2 8.1 72 2.5 ESE 7 11 4 6 1009.8 - 0.0
08/02:30am 12.3 11.9 8.4 77 2.0 CALM 0 6 0 3 1010.3 - 0.0
08/02:00am 13.4 12.4 8.9 74 2.3 E 4 7 2 4 1010.7 - 0.0
08/01:30am 12.8 12.5 8.7 76 2.1 CALM 0 0 0 0 1011.1 - 0.0
08/01:00am 14.7 14.4 8.6 67 3.1 CALM 0 0 0 0 1011.3 - 0.0
08/12:30am 14.9 14.5 8.4 65 3.3 CALM 0 0 0 0 1011.5 - 0.0
08/12:00am 15.5 15.2 8.5 63 3.6 CALM 0 0 0 0 1011.7 - 0.0
 
Date/Time
EDT
Temp
°C
App
Temp
°C
Dew
Point
°C
Rel
Hum
%
Delta-T
°C
Wind Press
QNH
hPa
Press
MSL
hPa
Rain since
9am
mm
Dir  Spd
km/h
Gust
km/h
Spd
kts
Gust
kts
07/11:30pm 17.3 16.9 8.4 56 4.6 CALM 0 0 0 0 1011.6 - 0.0
07/11:00pm 17.6 16.1 8.5 55 4.7 E 6 7 3 4 1011.7 - 0.0
07/10:30pm 18.8 17.6 8.2 50 5.5 NNE 4 6 2 3 1011.9 - 0.0
07/10:00pm 18.5 17.5 7.3 48 5.7 NNW 2 7 1 4 1012.0 - 0.0
07/09:30pm 21.8 20.3 6.9 38 7.7 N 4 7 2 4 1011.9 - 0.0
07/09:00pm 21.5 19.7 7.0 39 7.5 N 6 9 3 5 1012.0 - 0.0
07/08:30pm 22.6 21.8 6.4 35 8.4 CALM 0 0 0 0 1012.0 - 0.0
07/08:00pm 25.1 23.5 6.3 30 9.9 WSW 4 6 2 3 1012.1 - 0.0
07/07:30pm 27.8 26.7 8.6 30 10.6 WNW 4 7 2 4 1012.0 - 0.0
07/07:00pm 28.9 26.9 6.9 25 11.9 WNW 7 11 4 6 1011.8 - 0.0
07/06:30pm 29.7 27.5 6.4 23 12.6 W 7 11 4 6 1011.8 - 0.0
07/06:00pm 29.2 26.0 5.3 22 12.6 WNW 11 15 6 8 1011.9 - 0.0
07/05:30pm 30.0 26.5 5.3 21 13.1 WSW 13 17 7 9 1011.9 - 0.0
07/05:00pm 29.3 26.9 7.2 25 12.0 N 9 20 5 11 1011.9 - 0.0
07/04:30pm 28.9 26.1 6.9 25 11.9 NNE 11 19 6 10 1012.3 - 0.0
07/04:00pm 29.4 27.7 8.5 27 11.6 SW 7 17 4 9 1012.7 - 0.0
07/03:30pm 28.2 26.5 8.5 29 10.9 WSW 7 19 4 10 1013.0 - 0.0
07/03:00pm 27.5 25.0 8.4 30 10.5 N 11 20 6 11 1013.3 - 0.0
07/02:30pm 27.7 25.7 8.6 30 10.6 WNW 9 15 5 8 1013.7 - 0.0
07/02:00pm 27.4 25.7 8.3 30 10.5 W 7 17 4 9 1014.1 - 0.0
07/01:30pm 26.1 23.6 8.1 32 9.8 WNW 11 19 6 10 1014.5 - 0.0
07/01:00pm 26.0 24.2 8.0 32 9.8 NNW 7 17 4 9 1015.1 - 0.0
07/12:30pm 25.6 23.1 8.1 33 9.5 W 11 15 6 8 1015.4 - 0.0
07/12:00pm 24.9 22.9 8.8 36 8.8 N 9 13 5 7 1015.8 - 0.0
07/11:30am 23.6 21.6 8.5 38 8.2 WNW 9 13 5 7 1015.9 - 0.0
07/11:00am 22.8 20.9 9.2 42 7.4 ENE 9 15 5 8 1016.2 - 0.0
07/10:30am 22.0 20.9 9.9 46 6.6 NNW 6 11 3 6 1016.6 - 0.0
07/10:00am 21.5 20.6 10.6 50 6.0 S 6 11 3 6 1016.4 - 0.0
07/09:30am 19.3 18.5 11.6 61 4.3 NW 7 9 4 5 1016.4 - 0.0
07/09:00am 18.7 18.6 12.0 65 3.8 WSW 4 9 2 5 1016.4 1015.1 1.6
07/08:30am 17.3 16.7 12.4 73 2.7 NNE 7 9 4 5 1015.9 - 1.6
07/08:00am 16.6 16.4 12.9 79 2.1 E 6 9 3 5 1015.9 - 1.6
07/07:30am 15.0 15.9 12.9 87 1.2 CALM 0 0 0 0 1015.8 - 1.6
07/07:00am 12.9 13.3 12.6 98 0.2 SSW 2 7 1 4 1015.5 - 1.6
07/06:30am 11.1 10.2 10.8 98 0.2 SW 6 7 3 4 1015.3 - 1.6
07/06:00am 12.1 12.3 11.8 98 0.2 ESE 2 7 1 4 1015.1 1013.8 1.6
07/05:30am 11.9 11.1 11.7 99 0.1 ESE 7 13 4 7 1014.7 - 1.6
07/05:00am 11.7 12.1 11.2 97 0.3 CALM 0 0 0 0 1014.6 - 1.6
07/04:30am 11.9 12.2 11.0 94 0.5 CALM 0 0 0 0 1014.4 - 1.4
07/04:00am 12.9 12.5 12.3 96 0.3 E 6 7 3 4 1013.7 - 1.4
07/03:30am 13.3 13.7 12.5 95 0.4 S 2 6 1 3 1013.3 - 1.4
07/03:00am 13.7 14.1 12.6 93 0.6 SSW 2 6 1 3 1014.0 1012.6 1.4
07/02:30am 14.2 14.7 12.8 91 0.8 N 2 9 1 5 1014.2 - 1.4
07/02:00am 15.3 15.9 13.1 87 1.2 NNE 2 6 1 3 1014.8 - 1.4
07/01:30am 15.5 15.5 13.7 89 1.0 NNE 6 7 3 4 1015.2 - 1.4
07/01:00am 15.7 15.7 13.5 87 1.2 NNE 6 7 3 4 1015.3 - 1.4
07/12:30am 16.0 15.9 13.3 84 1.5 N 6 11 3 6 1015.5 - 1.0
07/12:00am 16.3 15.5 12.8 80 2.0 W 9 11 5 6 1015.8 1014.4 0.8
 
Date/Time
EDT
Temp
°C
App
Temp
°C
Dew
Point
°C
Rel
Hum
%
Delta-T
°C
Wind Press
QNH
hPa
Press
MSL
hPa
Rain since
9am
mm
Dir  Spd
km/h
Gust
km/h
Spd
kts
Gust
kts
06/11:30pm 17.6 18.0 11.4 67 3.4 CALM 0 0 0 0 1015.2 - 0.8
06/11:00pm 17.8 17.5 10.2 61 4.1 SE 2 7 1 4 1015.0 - 0.8
06/10:30pm 18.0 16.7 10.1 60 4.3 ESE 7 9 4 5 1014.6 - 0.8

Other Formats:

Comma delimited format used in spreadsheet applications
http://www.bom.gov.au/fwo/IDN60801/IDN60801.95721.axf

JavaScript Object Notation format (JSON) in row-major order
http://www.bom.gov.au/fwo/IDN60801/IDN60801.95721.json